Time;durP1;ratioP1;P1;durP2;ratioP2;P2;SDS_P1;SDS_P2;PMS_P1;PMS_P2;Temp;Humidity;BMP_temperature;BMP_pressure;BME280_temperature;BME280_humidity;BME280_pressure;Samples;Min_cycle;Max_cycle;Signal;HPM_P1;HPM_P2
2023/12/30 05:30:28;;;;;;;0.10;0.10;;;9.50;91.70;;;;;;5866523;23;20382;-77
2023/12/30 05:32:54;;;;;;;0.20;0.20;;;9.50;91.80;;;;;;4922340;29;20114;-77
2023/12/30 05:35:19;;;;;;;0.10;0.10;;;9.50;91.90;;;;;;4934575;29;20062;-77
2023/12/30 05:37:45;;;;;;;0.25;0.22;;;9.50;91.90;;;;;;4922689;29;20103;-77
2023/12/30 05:40:11;;;;;;;0.10;0.10;;;9.50;91.90;;;;;;4906913;29;20474;-77
2023/12/30 05:42:37;;;;;;;0.10;0.10;;;9.50;92.00;;;;;;4939185;29;20032;-77
2023/12/30 05:45:03;;;;;;;0.30;0.20;;;9.50;92.10;;;;;;4902984;29;20028;-77
2023/12/30 05:47:28;;;;;;;0.15;0.15;;;9.60;92.00;;;;;;4900058;29;20036;-77
2023/12/30 05:49:54;;;;;;;0.20;0.20;;;9.50;92.00;;;;;;4914659;29;20032;-78
2023/12/30 05:52:20;;;;;;;0.20;0.20;;;9.60;92.10;;;;;;4939121;29;20479;-78
2023/12/30 05:54:46;;;;;;;0.22;0.20;;;9.60;92.10;;;;;;4912803;29;20071;-78
2023/12/30 05:57:11;;;;;;;0.08;0.08;;;9.70;92.10;;;;;;4891981;29;20032;-78
2023/12/30 05:59:37;;;;;;;0.10;0.10;;;9.70;92.00;;;;;;4903176;29;20029;-78
2023/12/30 06:02:03;;;;;;;0.17;0.17;;;9.70;92.00;;;;;;4913795;29;20030;-77
2023/12/30 06:04:29;;;;;;;0.17;0.17;;;9.70;92.00;;;;;;4914988;29;20067;-77
2023/12/30 06:06:55;;;;;;;0.10;0.10;;;9.70;92.00;;;;;;4914339;29;20384;-77
2023/12/30 06:09:21;;;;;;;0.10;0.10;;;9.70;92.10;;;;;;4939083;29;20114;-77
2023/12/30 06:11:47;;;;;;;0.10;0.10;;;9.80;92.10;;;;;;4939265;29;20059;-77
2023/12/30 06:14:13;;;;;;;0.10;0.10;;;9.70;92.10;;;;;;4907138;29;20033;-77
2023/12/30 06:16:39;;;;;;;0.10;0.10;;;9.80;92.20;;;;;;4901009;29;20039;-77
2023/12/30 06:19:04;;;;;;;0.10;0.10;;;9.80;92.20;;;;;;4901188;29;20112;-77
2023/12/30 06:21:30;;;;;;;0.10;0.10;;;9.80;92.30;;;;;;4901333;29;20056;-77
2023/12/30 06:23:56;;;;;;;0.10;0.10;;;9.90;92.30;;;;;;4884763;29;20051;-77
2023/12/30 06:26:21;;;;;;;0.10;0.10;;;9.90;92.30;;;;;;4900982;29;20033;-77
2023/12/30 06:28:47;;;;;;;0.10;0.10;;;10.00;92.40;;;;;;4901017;29;20037;-77
2023/12/30 06:31:13;;;;;;;0.10;0.10;;;9.90;92.50;;;;;;4901024;29;20045;-78
2023/12/30 06:33:39;;;;;;;0.10;0.10;;;10.00;92.50;;;;;;4907862;29;20032;-77
2023/12/30 06:36:05;;;;;;;0.10;0.10;;;10.00;92.40;;;;;;4901363;29;20048;-77
2023/12/30 06:38:30;;;;;;;0.10;0.10;;;10.10;92.40;;;;;;4884968;29;20127;-77
2023/12/30 06:40:57;;;;;;;0.10;0.10;;;10.10;92.40;;;;;;4925031;29;20048;-77
2023/12/30 06:43:23;;;;;;;0.00;0.00;;;10.10;92.50;;;;;;4932242;29;20076;-78
2023/12/30 06:45:48;;;;;;;0.10;0.10;;;10.20;92.50;;;;;;4904587;29;20036;-77
2023/12/30 06:48:16;;;;;;;0.10;0.10;;;10.10;92.50;;;;;;4904150;29;20035;-77
2023/12/30 06:50:42;;;;;;;0.10;0.10;;;10.10;92.60;;;;;;4904319;29;20036;-77
2023/12/30 06:53:07;;;;;;;0.10;0.10;;;10.20;92.60;;;;;;4893657;29;20044;-77
2023/12/30 06:55:33;;;;;;;0.10;0.10;;;10.20;92.50;;;;;;4887638;29;20391;-78
2023/12/30 06:57:59;;;;;;;0.10;0.10;;;10.20;92.50;;;;;;4901501;29;20492;-77
2023/12/30 07:00:25;;;;;;;0.13;0.13;;;10.20;92.50;;;;;;4907939;29;20055;-77
2023/12/30 07:02:51;;;;;;;0.10;0.10;;;10.30;92.50;;;;;;4904635;29;20103;-77
2023/12/30 07:05:16;;;;;;;0.00;0.00;;;10.30;92.60;;;;;;4922894;29;20039;-78
2023/12/30 07:07:42;;;;;;;0.10;0.10;;;10.30;92.50;;;;;;4922943;29;20490;-78
2023/12/30 07:10:08;;;;;;;0.00;0.00;;;10.30;92.50;;;;;;4915301;29;20067;-77
2023/12/30 07:12:33;;;;;;;0.10;0.10;;;10.30;92.50;;;;;;4913433;29;20024;-77
2023/12/30 07:14:59;;;;;;;0.00;0.00;;;10.40;92.50;;;;;;4922163;29;20056;-77
2023/12/30 07:17:25;;;;;;;0.10;0.10;;;10.40;92.50;;;;;;4921706;29;20036;-77
2023/12/30 07:19:51;;;;;;;0.10;0.10;;;10.40;92.60;;;;;;4902669;29;20119;-77
2023/12/30 07:22:19;;;;;;;0.10;0.10;;;10.30;92.60;;;;;;4903835;29;20055;-77
2023/12/30 07:24:45;;;;;;;0.10;0.10;;;10.40;92.60;;;;;;4903626;29;20029;-77
2023/12/30 07:27:11;;;;;;;0.10;0.10;;;10.50;92.60;;;;;;4903571;29;20033;-77
2023/12/30 07:29:37;;;;;;;0.00;0.00;;;10.50;92.70;;;;;;4903414;29;20028;-77
2023/12/30 07:32:03;;;;;;;0.10;0.10;;;10.50;92.70;;;;;;4903539;29;20096;-77
2023/12/30 07:34:28;;;;;;;0.10;0.10;;;10.50;92.80;;;;;;4917212;29;20047;-77
2023/12/30 07:36:56;;;;;;;0.10;0.10;;;10.50;92.70;;;;;;4911150;29;20032;-77
2023/12/30 07:39:22;;;;;;;0.10;0.10;;;10.50;92.70;;;;;;4903456;29;20033;-78
2023/12/30 07:41:47;;;;;;;0.10;0.10;;;10.50;92.70;;;;;;4920980;29;20443;-77
2023/12/30 07:44:14;;;;;;;0.10;0.10;;;10.50;92.70;;;;;;4905595;29;20025;-77
2023/12/30 07:46:40;;;;;;;0.10;0.10;;;10.60;92.70;;;;;;4903453;29;20040;-77
2023/12/30 07:49:05;;;;;;;0.10;0.10;;;10.60;92.70;;;;;;4901911;29;20485;-77
2023/12/30 07:51:31;;;;;;;0.10;0.10;;;10.60;92.70;;;;;;4901072;29;20028;-77
2023/12/30 07:53:56;;;;;;;0.03;0.03;;;10.60;92.70;;;;;;4903051;29;20032;-77
2023/12/30 07:56:22;;;;;;;0.10;0.10;;;10.60;92.70;;;;;;4902104;29;20036;-77
2023/12/30 07:58:48;;;;;;;0.10;0.10;;;10.70;92.60;;;;;;4902945;29;20029;-77
2023/12/30 08:01:13;;;;;;;0.10;0.10;;;10.70;92.70;;;;;;4905511;29;20028;-77
2023/12/30 08:03:39;;;;;;;0.10;0.10;;;10.70;92.60;;;;;;4910039;29;20032;-78
2023/12/30 08:06:05;;;;;;;0.10;0.10;;;10.70;92.60;;;;;;4909364;29;22037;-77
2023/12/30 08:08:31;;;;;;;0.00;0.00;;;10.70;92.60;;;;;;4916029;29;20444;-78
2023/12/30 08:10:57;;;;;;;0.10;0.10;;;10.70;92.60;;;;;;4901826;29;20112;-77
2023/12/30 08:13:22;;;;;;;0.10;0.10;;;10.70;92.70;;;;;;4895411;29;20104;-77
2023/12/30 08:15:48;;;;;;;0.13;0.13;;;10.70;92.70;;;;;;4903151;29;20479;-78
2023/12/30 08:18:13;;;;;;;0.10;0.10;;;10.70;92.60;;;;;;4885815;29;20028;-77
2023/12/30 08:20:39;;;;;;;0.10;0.10;;;10.80;92.60;;;;;;4902698;29;20073;-77
2023/12/30 08:23:05;;;;;;;0.10;0.10;;;10.80;92.50;;;;;;4902344;29;20056;-77
2023/12/30 08:25:31;;;;;;;0.10;0.10;;;10.80;92.60;;;;;;4902554;29;20033;-77
2023/12/30 08:27:56;;;;;;;0.10;0.10;;;10.80;92.50;;;;;;4902209;29;20376;-78
2023/12/30 08:30:22;;;;;;;0.10;0.10;;;10.80;92.60;;;;;;4901175;29;20068;-77
2023/12/30 08:32:51;;;;;;;0.10;0.10;;;10.90;92.50;;;;;;4902778;29;20087;-77
2023/12/30 08:35:16;;;;;;;0.10;0.10;;;10.90;92.50;;;;;;4907770;29;20064;-77
2023/12/30 08:37:42;;;;;;;0.10;0.10;;;10.90;92.40;;;;;;4902358;29;20092;-77
2023/12/30 08:40:10;;;;;;;0.10;0.10;;;11.00;92.40;;;;;;4909772;29;20020;-77
2023/12/30 08:42:37;;;;;;;0.10;0.10;;;10.90;92.30;;;;;;4904733;29;20021;-77
2023/12/30 08:45:04;;;;;;;0.10;0.10;;;10.90;92.40;;;;;;4907929;29;20024;-77
2023/12/30 08:47:33;;;;;;;0.10;0.10;;;11.00;92.40;;;;;;4921208;29;20095;-77
2023/12/30 08:49:59;;;;;;;0.10;0.10;;;10.90;92.30;;;;;;4914454;29;20024;-77
2023/12/30 08:52:24;;;;;;;0.10;0.10;;;11.00;92.30;;;;;;4901158;29;20039;-77
2023/12/30 08:54:50;;;;;;;0.10;0.10;;;11.00;92.20;;;;;;4901861;29;20163;-77
2023/12/30 08:57:16;;;;;;;0.10;0.10;;;11.00;92.30;;;;;;4900352;29;20752;-77
2023/12/30 08:59:41;;;;;;;0.10;0.10;;;11.00;92.20;;;;;;4904415;29;20510;-77
2023/12/30 09:02:07;;;;;;;0.10;0.10;;;11.00;92.20;;;;;;4911850;29;20021;-77
2023/12/30 09:04:33;;;;;;;0.10;0.10;;;11.00;92.30;;;;;;4899189;29;20119;-78
2023/12/30 09:06:58;;;;;;;0.10;0.10;;;11.10;92.30;;;;;;4919833;29;20036;-77
2023/12/30 09:09:24;;;;;;;0.00;0.00;;;11.10;92.20;;;;;;4915559;29;20048;-77
2023/12/30 09:11:50;;;;;;;0.10;0.10;;;11.10;92.20;;;;;;4920939;29;20103;-77
2023/12/30 09:14:16;;;;;;;0.10;0.10;;;11.20;92.20;;;;;;4911125;29;20452;-77
2023/12/30 09:16:41;;;;;;;0.10;0.10;;;11.20;92.00;;;;;;4901798;29;20083;-77
2023/12/30 09:19:07;;;;;;;0.10;0.10;;;11.20;92.10;;;;;;4901582;29;20016;-77
2023/12/30 09:21:33;;;;;;;0.10;0.10;;;11.20;91.90;;;;;;4905049;29;20060;-77
2023/12/30 09:23:58;;;;;;;0.10;0.10;;;11.30;91.90;;;;;;4920756;29;20029;-78
2023/12/30 09:26:25;;;;;;;0.10;0.10;;;11.30;91.90;;;;;;4903492;29;20024;-77
2023/12/30 09:28:51;;;;;;;0.10;0.10;;;11.20;91.80;;;;;;4914115;29;20021;-78
2023/12/30 09:31:17;;;;;;;0.10;0.10;;;11.20;91.70;;;;;;4901422;29;20056;-77
2023/12/30 09:33:42;;;;;;;0.10;0.10;;;11.30;91.80;;;;;;4903642;29;20060;-77
2023/12/30 09:36:08;;;;;;;0.10;0.10;;;11.30;91.80;;;;;;4901535;29;20032;-77
2023/12/30 09:38:34;;;;;;;0.10;0.10;;;11.40;91.80;;;;;;4884977;29;20032;-77
2023/12/30 09:40:59;;;;;;;0.10;0.10;;;11.30;91.70;;;;;;4922486;29;20313;-77
2023/12/30 09:43:27;;;;;;;0.10;0.10;;;11.30;91.70;;;;;;4921464;29;20024;-78
2023/12/30 09:45:54;;;;;;;0.10;0.10;;;11.40;91.60;;;;;;4920400;29;20039;-77
2023/12/30 09:48:25;;;;;;;0.10;0.10;;;11.40;91.70;;;;;;4904145;29;20079;-77
2023/12/30 09:50:51;;;;;;;0.10;0.10;;;11.40;91.70;;;;;;4901543;29;20130;-78
2023/12/30 09:53:21;;;;;;;0.10;0.10;;;11.50;91.70;;;;;;4901440;29;20020;-77
2023/12/30 09:55:49;;;;;;;0.10;0.10;;;11.50;91.70;;;;;;4901247;29;20484;-77
2023/12/30 09:58:17;;;;;;;0.10;0.10;;;11.50;91.70;;;;;;4901423;29;20052;-78
2023/12/30 10:00:43;;;;;;;0.00;0.00;;;11.50;91.70;;;;;;4903203;29;20032;-77
2023/12/30 10:03:12;;;;;;;0.10;0.10;;;11.60;91.60;;;;;;4917872;29;20025;-77
2023/12/30 10:05:38;;;;;;;0.10;0.10;;;11.70;91.60;;;;;;4901346;29;20027;-77
2023/12/30 10:08:05;;;;;;;0.10;0.10;;;11.70;91.30;;;;;;4903131;29;20060;-77
2023/12/30 10:10:53;;;;;;;0.10;0.10;;;11.80;91.30;;;;;;4915738;29;20039;-78
2023/12/30 10:13:22;;;;;;;0.17;0.17;;;11.80;91.20;;;;;;4901784;29;20157;-77
2023/12/30 10:15:48;;;;;;;0.10;0.10;;;11.80;91.20;;;;;;4904740;29;20083;-77
2023/12/30 10:18:15;;;;;;;0.20;0.13;;;11.80;91.00;;;;;;4904914;29;20065;-77
2023/12/30 10:20:44;;;;;;;0.10;0.10;;;11.90;91.10;;;;;;4904910;29;20024;-78
2023/12/30 10:23:10;;;;;;;0.10;0.10;;;12.00;90.90;;;;;;4904514;29;20027;-77
2023/12/30 10:25:37;;;;;;;0.10;0.10;;;12.00;90.80;;;;;;4903774;29;20119;-77
2023/12/30 10:28:03;;;;;;;0.10;0.10;;;12.10;90.80;;;;;;4903435;29;20108;-77
2023/12/30 10:30:30;;;;;;;0.10;0.10;;;12.10;90.60;;;;;;4903461;29;20052;-78
2023/12/30 10:33:25;;;;;;;0.10;0.10;;;12.10;90.40;;;;;;4905735;29;20032;-77
2023/12/30 10:35:51;;;;;;;0.10;0.10;;;12.20;90.50;;;;;;4898331;29;20055;-78
2023/12/30 10:38:18;;;;;;;0.10;0.10;;;12.20;90.40;;;;;;4920635;29;20391;-78
2023/12/30 10:40:44;;;;;;;0.10;0.10;;;12.10;90.10;;;;;;4914994;29;20027;-77
2023/12/30 10:43:10;;;;;;;0.10;0.10;;;12.10;90.20;;;;;;4925299;29;20526;-78
2023/12/30 10:45:36;;;;;;;0.10;0.10;;;12.30;90.20;;;;;;4915490;29;20040;-78
2023/12/30 10:48:05;;;;;;;0.10;0.10;;;12.30;90.20;;;;;;4915361;29;20492;-78
2023/12/30 10:50:32;;;;;;;0.10;0.10;;;12.30;89.90;;;;;;4906477;29;20040;-77
2023/12/30 10:53:10;;;;;;;0.10;0.10;;;12.30;89.80;;;;;;4923181;29;20412;-78
2023/12/30 10:55:39;;;;;;;0.10;0.10;;;12.30;89.80;;;;;;4906420;29;20119;-78
2023/12/30 10:58:17;;;;;;;0.10;0.10;;;12.30;89.80;;;;;;4904144;29;20029;-77
2023/12/30 11:00:45;;;;;;;0.08;0.08;;;12.30;90.00;;;;;;4897615;29;20032;-78
2023/12/30 11:03:11;;;;;;;0.10;0.10;;;12.30;89.50;;;;;;4916172;29;20055;-78
2023/12/30 11:06:07;;;;;;;0.10;0.10;;;12.40;89.50;;;;;;4922899;29;20024;-77
2023/12/30 11:08:33;;;;;;;0.10;0.10;;;12.50;89.40;;;;;;4923023;29;20028;-77
2023/12/30 11:11:04;;;;;;;0.00;0.00;;;12.60;89.50;;;;;;4911510;29;20040;-77
2023/12/30 11:13:36;;;;;;;0.10;0.10;;;12.60;89.30;;;;;;4902921;29;20052;-78
2023/12/30 11:16:21;;;;;;;0.08;0.08;;;12.50;89.00;;;;;;4919144;29;20036;-77
2023/12/30 11:18:47;;;;;;;0.10;0.10;;;12.60;89.20;;;;;;4912730;29;20040;-77
2023/12/30 11:21:42;;;;;;;0.10;0.10;;;12.70;89.00;;;;;;4905312;29;20055;-78
2023/12/30 11:24:10;;;;;;;0.10;0.10;;;12.80;88.60;;;;;;4907912;29;20024;-78
2023/12/30 11:26:40;;;;;;;0.10;0.10;;;13.00;88.00;;;;;;4905614;29;20028;-78
2023/12/30 11:29:10;;;;;;;0.10;0.10;;;13.10;87.90;;;;;;4921265;29;20035;-77
2023/12/30 11:31:36;;;;;;;0.20;0.20;;;13.10;87.90;;;;;;4912191;29;20056;-78
2023/12/30 11:34:04;;;;;;;0.10;0.10;;;13.20;87.70;;;;;;4922415;29;20096;-77
2023/12/30 11:36:30;;;;;;;0.10;0.10;;;13.20;87.60;;;;;;4912514;29;20024;-78
2023/12/30 11:38:58;;;;;;;0.05;0.05;;;13.20;87.20;;;;;;4903611;29;20047;-77
2023/12/30 11:41:25;;;;;;;0.10;0.10;;;13.10;87.40;;;;;;4930583;29;20035;-78
2023/12/30 11:43:52;;;;;;;0.00;0.00;;;12.90;87.50;;;;;;4921609;29;20032;-77
2023/12/30 11:46:17;;;;;;;0.10;0.10;;;12.90;87.80;;;;;;4917818;29;20080;-77
2023/12/30 11:48:46;;;;;;;0.00;0.00;;;12.80;87.50;;;;;;4903399;29;20037;-77
2023/12/30 11:51:22;;;;;;;0.10;0.10;;;12.80;87.50;;;;;;4919762;29;20035;-77
2023/12/30 11:53:47;;;;;;;0.00;0.00;;;12.80;87.50;;;;;;4903873;29;20111;-78
2023/12/30 11:56:15;;;;;;;0.00;0.00;;;12.80;87.80;;;;;;4903164;29;20056;-78
2023/12/30 11:58:42;;;;;;;0.10;0.10;;;12.80;87.90;;;;;;4903171;29;20048;-77
2023/12/30 12:01:07;;;;;;;0.10;0.10;;;12.80;88.00;;;;;;4916310;29;20454;-78
2023/12/30 12:03:33;;;;;;;0.10;0.10;;;12.80;87.90;;;;;;4920786;29;20032;-77
2023/12/30 12:05:59;;;;;;;0.10;0.10;;;12.80;87.90;;;;;;4921662;29;20024;-77
2023/12/30 12:08:24;;;;;;;0.10;0.10;;;12.80;87.80;;;;;;4911659;29;20507;-78
2023/12/30 12:10:50;;;;;;;0.10;0.10;;;12.80;88.10;;;;;;4902966;29;20056;-78
2023/12/30 12:13:26;;;;;;;0.10;0.10;;;12.80;88.10;;;;;;4902431;29;20032;-77
2023/12/30 12:15:53;;;;;;;0.00;0.00;;;12.90;88.00;;;;;;4902956;29;20039;-77
2023/12/30 12:18:20;;;;;;;0.10;0.10;;;13.00;87.60;;;;;;4902652;29;20035;-78
2023/12/30 12:20:46;;;;;;;0.10;0.10;;;13.10;87.60;;;;;;4902540;29;20515;-78
2023/12/30 12:23:12;;;;;;;0.10;0.10;;;13.20;87.10;;;;;;4902428;29;20024;-77
2023/12/30 12:25:38;;;;;;;0.10;0.10;;;13.50;86.70;;;;;;4902712;29;20028;-77
2023/12/30 12:28:12;;;;;;;0.10;0.10;;;13.50;86.10;;;;;;4902537;29;20036;-77
2023/12/30 12:30:38;;;;;;;0.10;0.10;;;13.70;86.10;;;;;;4908722;29;20056;-78
2023/12/30 12:33:04;;;;;;;0.10;0.10;;;13.60;85.40;;;;;;4920912;29;20043;-78
2023/12/30 12:35:30;;;;;;;0.10;0.10;;;13.60;85.60;;;;;;4902787;29;20036;-78
2023/12/30 12:37:59;;;;;;;0.10;0.10;;;13.40;85.60;;;;;;4901834;29;20115;-77
2023/12/30 12:40:25;;;;;;;0.10;0.10;;;13.40;85.70;;;;;;4905269;29;20068;-78
2023/12/30 12:42:51;;;;;;;0.10;0.10;;;13.40;85.80;;;;;;4902161;29;20476;-78
2023/12/30 12:45:17;;;;;;;0.10;0.10;;;13.30;85.50;;;;;;4915441;29;20091;-78
2023/12/30 12:47:43;;;;;;;0.10;0.10;;;13.40;85.60;;;;;;4916710;29;20036;-78
2023/12/30 12:50:08;;;;;;;0.10;0.10;;;13.40;85.70;;;;;;4902214;29;20107;-78
2023/12/30 12:52:34;;;;;;;0.10;0.10;;;13.40;85.70;;;;;;4902168;29;20072;-77
2023/12/30 12:55:00;;;;;;;0.10;0.10;;;13.50;85.40;;;;;;4901905;29;20403;-77
2023/12/30 12:57:26;;;;;;;0.10;0.10;;;13.50;85.30;;;;;;4901906;29;20448;-78
2023/12/30 12:59:51;;;;;;;0.10;0.10;;;13.50;85.50;;;;;;4905813;29;20022;-77
2023/12/30 13:02:18;;;;;;;0.10;0.10;;;13.50;85.20;;;;;;4913450;29;20125;-77
2023/12/30 13:04:44;;;;;;;0.03;0.03;;;13.50;85.30;;;;;;4917558;29;20031;-77
2023/12/30 13:07:11;;;;;;;0.10;0.10;;;13.50;84.90;;;;;;4907134;29;20040;-78
2023/12/30 13:09:59;;;;;;;0.10;0.10;;;13.60;84.80;;;;;;4901925;29;20032;-78
2023/12/30 13:12:25;;;;;;;0.10;0.10;;;13.70;84.70;;;;;;4902057;29;20033;-77
2023/12/30 13:14:58;;;;;;;0.10;0.10;;;13.80;84.50;;;;;;4899655;29;20033;-77
2023/12/30 13:17:24;;;;;;;0.00;0.00;;;13.90;84.30;;;;;;4897353;29;20055;-77
2023/12/30 13:19:50;;;;;;;0.03;0.03;;;13.80;83.90;;;;;;4903143;29;20056;-77
2023/12/30 13:22:16;;;;;;;0.10;0.10;;;13.50;83.20;;;;;;4902837;29;20511;-78
2023/12/30 13:24:44;;;;;;;0.10;0.10;;;13.40;83.30;;;;;;4900779;29;20055;-77
2023/12/30 13:27:10;;;;;;;0.10;0.10;;;13.30;84.00;;;;;;4901269;29;20068;-77
2023/12/30 13:29:36;;;;;;;0.10;0.10;;;13.20;84.10;;;;;;4900441;29;20578;-78
2023/12/30 13:32:02;;;;;;;0.10;0.10;;;13.20;84.50;;;;;;4901153;29;20048;-77
2023/12/30 13:34:29;;;;;;;0.10;0.10;;;13.10;85.40;;;;;;4915024;29;20095;-77
2023/12/30 13:36:57;;;;;;;0.10;0.10;;;13.00;86.40;;;;;;4904036;29;20032;-77
2023/12/30 13:39:24;;;;;;;0.10;0.10;;;12.90;86.90;;;;;;4884813;29;20103;-77
2023/12/30 13:41:50;;;;;;;0.05;0.05;;;12.80;87.50;;;;;;4920444;29;20248;-77
2023/12/30 13:44:16;;;;;;;0.00;0.00;;;12.80;87.70;;;;;;4924945;29;20020;-77
2023/12/30 13:51:37;;;;;;;0.10;0.10;;;12.90;87.90;;;;;;4905703;29;20036;-78
2023/12/30 13:54:03;;;;;;;0.10;0.10;;;13.00;87.90;;;;;;4905234;29;20046;-77
2023/12/30 13:56:35;;;;;;;0.10;0.10;;;13.10;87.50;;;;;;4905314;29;20047;-78
2023/12/30 13:59:01;;;;;;;0.10;0.10;;;13.20;87.10;;;;;;4909062;29;20021;-78
2023/12/30 14:01:27;;;;;;;0.10;0.10;;;13.10;86.70;;;;;;4907089;29;20395;-77
2023/12/30 14:03:54;;;;;;;0.10;0.10;;;13.20;86.30;;;;;;4915199;29;20021;-77
2023/12/30 14:06:28;;;;;;;0.10;0.10;;;13.20;86.00;;;;;;4924112;29;20377;-78
2023/12/30 14:08:53;;;;;;;0.10;0.10;;;13.10;85.80;;;;;;4903402;29;20029;-77
2023/12/30 14:11:33;;;;;;;0.00;0.00;;;13.10;86.00;;;;;;4905182;29;20119;-77
2023/12/30 14:13:59;;;;;;;0.10;0.10;;;13.00;85.50;;;;;;4904632;29;20021;-77
2023/12/30 14:16:25;;;;;;;0.10;0.10;;;13.10;85.50;;;;;;4904982;29;20029;-77
2023/12/30 14:18:51;;;;;;;0.10;0.10;;;13.10;85.50;;;;;;4904905;29;20019;-78
2023/12/30 14:21:17;;;;;;;0.10;0.10;;;13.00;85.50;;;;;;4904735;29;20033;-78
2023/12/30 14:23:43;;;;;;;0.10;0.10;;;13.10;85.50;;;;;;4904919;29;20032;-78
2023/12/30 14:26:09;;;;;;;0.10;0.10;;;13.10;85.50;;;;;;4904568;29;20031;-77
2023/12/30 14:28:35;;;;;;;0.10;0.10;;;13.10;85.40;;;;;;4906523;29;20491;-77
2023/12/30 14:31:00;;;;;;;0.10;0.10;;;13.10;85.20;;;;;;4910619;29;20070;-78
2023/12/30 14:33:26;;;;;;;0.10;0.10;;;13.00;85.20;;;;;;4922206;29;20066;-78
2023/12/30 14:35:51;;;;;;;0.00;0.00;;;13.00;85.30;;;;;;4918164;29;20028;-77
2023/12/30 14:38:18;;;;;;;0.10;0.10;;;13.00;85.50;;;;;;4919113;29;20038;-77
2023/12/30 14:40:44;;;;;;;0.10;0.10;;;13.00;85.50;;;;;;4921327;29;20039;-77
2023/12/30 14:43:10;;;;;;;0.10;0.10;;;12.90;85.30;;;;;;4942078;29;20039;-78
2023/12/30 14:45:35;;;;;;;0.10;0.10;;;13.00;85.20;;;;;;4905666;29;20520;-77
2023/12/30 14:48:01;;;;;;;0.10;0.10;;;13.00;85.30;;;;;;4904327;29;20107;-77
2023/12/30 14:50:26;;;;;;;0.10;0.10;;;13.00;84.70;;;;;;4916100;29;20030;-77
2023/12/30 14:52:53;;;;;;;0.10;0.10;;;13.00;84.80;;;;;;4918329;29;20032;-77
2023/12/30 14:55:18;;;;;;;0.00;0.00;;;13.00;84.80;;;;;;4918821;29;20029;-78
2023/12/30 14:57:47;;;;;;;0.10;0.10;;;13.00;84.40;;;;;;4904128;29;20035;-77
2023/12/30 15:00:13;;;;;;;0.10;0.10;;;13.00;84.20;;;;;;4910190;29;20080;-78
2023/12/30 15:02:40;;;;;;;0.00;0.00;;;13.10;84.10;;;;;;4917562;29;20028;-77
2023/12/30 15:05:08;;;;;;;0.10;0.10;;;13.10;84.00;;;;;;4922566;29;20024;-77
2023/12/30 15:07:35;;;;;;;0.00;0.00;;;13.10;83.80;;;;;;4921730;29;20039;-77
2023/12/30 15:10:00;;;;;;;0.10;0.10;;;13.00;83.70;;;;;;4908470;29;20397;-77
2023/12/30 15:12:26;;;;;;;0.10;0.10;;;13.00;84.10;;;;;;4903971;29;20039;-77
2023/12/30 15:14:51;;;;;;;0.10;0.10;;;12.90;83.90;;;;;;4903730;29;20024;-77
2023/12/30 15:17:18;;;;;;;0.10;0.10;;;12.90;83.90;;;;;;4902735;29;20036;-77
2023/12/30 15:19:44;;;;;;;0.10;0.10;;;12.90;83.80;;;;;;4903902;29;20145;-77
2023/12/30 15:22:10;;;;;;;0.10;0.10;;;13.00;83.80;;;;;;4915637;29;20024;-77
2023/12/30 15:24:36;;;;;;;0.10;0.10;;;13.00;83.70;;;;;;4922861;29;20372;-77
2023/12/30 15:27:02;;;;;;;0.10;0.10;;;13.00;83.60;;;;;;4922150;29;20083;-77
2023/12/30 15:29:28;;;;;;;0.03;0.03;;;13.00;83.60;;;;;;4919829;29;20035;-77
2023/12/30 15:31:54;;;;;;;0.00;0.00;;;13.00;83.60;;;;;;4903615;29;20053;-77
2023/12/30 15:34:19;;;;;;;0.00;0.00;;;13.00;83.50;;;;;;4915830;29;20115;-77
2023/12/30 15:36:45;;;;;;;0.10;0.10;;;12.90;83.50;;;;;;4922489;29;20090;-77
2023/12/30 15:39:11;;;;;;;0.10;0.10;;;12.90;83.90;;;;;;4900661;29;20028;-77
2023/12/30 15:41:37;;;;;;;0.10;0.10;;;12.80;84.70;;;;;;4934094;29;20027;-77
2023/12/30 15:44:03;;;;;;;0.10;0.10;;;12.80;85.10;;;;;;4939596;29;20151;-77
2023/12/30 15:46:29;;;;;;;0.00;0.00;;;12.70;85.30;;;;;;4903301;29;20064;-77
2023/12/30 15:48:55;;;;;;;0.10;0.10;;;12.70;85.80;;;;;;4901965;29;20021;-77
2023/12/30 15:51:21;;;;;;;0.10;0.10;;;12.70;86.00;;;;;;4901246;29;20399;-77
2023/12/30 15:53:48;;;;;;;0.00;0.00;;;12.60;86.10;;;;;;4909562;29;20088;-77
2023/12/30 15:56:13;;;;;;;0.10;0.10;;;12.60;86.30;;;;;;4886494;29;20426;-77
2023/12/30 15:58:39;;;;;;;0.10;0.10;;;12.60;86.20;;;;;;4915926;29;20052;-77
2023/12/30 16:01:05;;;;;;;0.00;0.00;;;12.50;86.00;;;;;;4908401;29;20029;-78
2023/12/30 16:03:30;;;;;;;0.00;0.00;;;12.50;85.90;;;;;;4908178;29;20020;-77
2023/12/30 16:05:56;;;;;;;0.00;0.00;;;12.50;85.90;;;;;;4901807;29;20036;-78
2023/12/30 16:08:21;;;;;;;0.00;0.00;;;12.50;85.80;;;;;;4886062;29;20036;-77
2023/12/30 16:10:48;;;;;;;0.00;0.00;;;12.50;85.70;;;;;;4902334;29;20039;-77
2023/12/30 16:13:14;;;;;;;0.10;0.10;;;12.50;85.60;;;;;;4902539;29;20021;-77
2023/12/30 16:15:40;;;;;;;0.10;0.10;;;12.60;85.50;;;;;;4886182;29;20499;-78
2023/12/30 16:18:05;;;;;;;0.10;0.10;;;12.60;85.40;;;;;;4902689;29;20092;-78
2023/12/30 16:20:31;;;;;;;0.00;0.00;;;12.50;85.40;;;;;;4902753;29;20025;-78
2023/12/30 16:23:02;;;;;;;0.00;0.00;;;12.50;85.20;;;;;;4901400;29;20029;-77
2023/12/30 16:25:28;;;;;;;0.10;0.10;;;12.50;85.30;;;;;;4902369;29;20037;-77
2023/12/30 16:27:53;;;;;;;0.10;0.10;;;12.50;85.30;;;;;;4902554;29;20488;-77
2023/12/30 16:30:19;;;;;;;0.10;0.10;;;12.50;85.10;;;;;;4902411;29;20037;-77
2023/12/30 16:32:45;;;;;;;0.00;0.00;;;12.50;84.90;;;;;;4902350;29;20445;-77
2023/12/30 16:35:10;;;;;;;0.05;0.05;;;12.50;85.10;;;;;;4902415;29;20064;-77
2023/12/30 16:37:36;;;;;;;0.08;0.08;;;12.50;85.00;;;;;;4902182;29;20025;-77
2023/12/30 16:40:04;;;;;;;0.00;0.00;;;12.50;84.80;;;;;;4908070;29;20034;-77
2023/12/30 16:42:30;;;;;;;0.10;0.10;;;12.40;85.00;;;;;;4922942;29;20024;-77
2023/12/30 16:44:56;;;;;;;0.00;0.00;;;12.50;84.80;;;;;;4940462;29;20111;-77
2023/12/30 16:47:23;;;;;;;0.10;0.10;;;12.50;84.90;;;;;;4918901;29;20072;-77
2023/12/30 16:49:48;;;;;;;0.10;0.10;;;12.50;85.00;;;;;;4905981;29;20032;-77
2023/12/30 16:52:14;;;;;;;0.00;0.00;;;12.50;84.70;;;;;;4912899;29;20496;-77
2023/12/30 16:54:39;;;;;;;0.10;0.10;;;12.50;84.90;;;;;;4902131;29;20055;-77
2023/12/30 16:57:06;;;;;;;0.10;0.10;;;12.50;84.90;;;;;;4900522;29;20040;-78
2023/12/30 16:59:32;;;;;;;0.10;0.10;;;12.50;85.20;;;;;;4901948;29;20035;-78
2023/12/30 17:01:59;;;;;;;0.03;0.03;;;12.40;85.30;;;;;;4920044;29;20091;-77
2023/12/30 17:04:25;;;;;;;0.10;0.10;;;12.40;85.10;;;;;;4903435;29;20028;-78
2023/12/30 17:06:51;;;;;;;0.10;0.10;;;12.40;85.10;;;;;;4902244;29;20056;-77
2023/12/30 17:09:16;;;;;;;0.10;0.10;;;12.40;85.00;;;;;;4901210;29;20064;-78
2023/12/30 17:11:42;;;;;;;0.10;0.10;;;12.40;85.00;;;;;;4901412;29;20099;-77
2023/12/30 17:14:10;;;;;;;0.10;0.10;;;12.40;85.00;;;;;;4901700;29;20032;-77
2023/12/30 17:16:36;;;;;;;0.10;0.10;;;12.40;85.10;;;;;;4901748;29;20399;-78
2023/12/30 17:19:02;;;;;;;0.10;0.10;;;12.40;85.10;;;;;;4890373;29;20037;-77
2023/12/30 17:21:30;;;;;;;0.00;0.00;;;12.40;85.20;;;;;;4919881;29;20020;-77
2023/12/30 17:23:56;;;;;;;0.10;0.10;;;12.40;85.10;;;;;;4913984;29;20384;-78
2023/12/30 17:26:22;;;;;;;0.10;0.10;;;12.40;85.20;;;;;;4900859;29;20403;-77
2023/12/30 17:28:48;;;;;;;0.10;0.10;;;12.50;85.20;;;;;;4901302;29;20124;-78
2023/12/30 17:31:14;;;;;;;0.08;0.08;;;12.50;85.30;;;;;;4906730;29;20087;-77
2023/12/30 17:33:39;;;;;;;0.05;0.05;;;12.40;85.40;;;;;;4903440;29;20052;-78
2023/12/30 17:36:05;;;;;;;0.10;0.10;;;12.40;85.40;;;;;;4901644;29;20029;-78
2023/12/30 17:38:31;;;;;;;0.00;0.00;;;12.30;85.60;;;;;;4901803;29;20032;-77
2023/12/30 17:40:57;;;;;;;0.10;0.10;;;12.30;85.70;;;;;;4917038;29;20023;-77
2023/12/30 17:43:22;;;;;;;0.10;0.10;;;12.30;85.70;;;;;;4901573;29;20025;-77
2023/12/30 17:45:48;;;;;;;0.10;0.10;;;12.40;85.90;;;;;;4916019;29;20024;-77
2023/12/30 17:48:14;;;;;;;0.00;0.00;;;12.30;85.80;;;;;;4901520;29;20547;-77
2023/12/30 17:50:42;;;;;;;0.00;0.00;;;12.30;85.80;;;;;;4901556;29;20023;-77
2023/12/30 17:53:10;;;;;;;0.10;0.10;;;12.30;85.90;;;;;;4901614;29;20035;-77
2023/12/30 17:55:36;;;;;;;0.00;0.00;;;12.30;85.80;;;;;;4905614;29;20033;-78
2023/12/30 17:58:01;;;;;;;0.10;0.10;;;12.30;86.10;;;;;;4900063;29;20088;-77
2023/12/30 18:00:27;;;;;;;0.05;0.05;;;12.30;86.20;;;;;;4909432;29;20028;-78
2023/12/30 18:02:53;;;;;;;0.10;0.10;;;12.30;86.30;;;;;;4920309;29;20059;-77
2023/12/30 18:05:19;;;;;;;0.10;0.10;;;12.30;86.20;;;;;;4904844;29;20036;-77
2023/12/30 18:07:45;;;;;;;0.00;0.00;;;12.30;86.20;;;;;;4901548;29;20029;-78
2023/12/30 18:10:10;;;;;;;0.00;0.00;;;12.30;86.30;;;;;;4908568;29;21142;-77
2023/12/30 18:12:38;;;;;;;0.10;0.10;;;12.30;86.20;;;;;;4900316;29;20095;-77
2023/12/30 18:15:05;;;;;;;0.10;0.10;;;12.20;86.10;;;;;;4899870;29;20033;-77
2023/12/30 18:17:31;;;;;;;0.10;0.10;;;12.30;86.20;;;;;;4901258;29;20065;-77
2023/12/30 18:19:58;;;;;;;0.00;0.00;;;12.30;86.10;;;;;;4916061;29;20028;-77